BFD Airport (Bradford Rgnl) Information

FAA: BFD - ICAO: KBFD

BFD Airport Location

State Pennsylvania
County Mc Kean
City Bradford
BFD Airport is 10 miles south of Bradford, PA.
Latitude 41-48-10.6356N
Longitude 078-38-23.8775W
Elevation 2,143ft

KBFD Airport METARs

METAR KBFD 251553Z AUTO 23008G18KT 10SM CLR 18/08 A2980 RMK AO2 SLP086 T01830078
Altimeter 29.80"
Temperature 18.3°C (64.9°F)
Wind 230° at 8KT with gusts to 18KT
Clouds Skies are clear.
Visibility 10.0mi
Time observed: 2021-10-25T15:53:00Z

BFD Airport Details

Status Operational
Activation November 1977
Ownership Public
Usage Public
Chart DETROIT
ATC on-site No
Beacon schedule sunset-sunrise
Beacon color clear green

BFD Airport Contacts

Owner BRADFORD REGIONAL ARPT AUTH
Owner address 212 AIRPORT DR SUITE E, LEWIS RUN, PA 16738
Owner phone 814-368-5928
Manager STEVE GANSKY
Manager address 777 AMERICAN DR, BENSALEM, PA 19020
Manager phone 215-990-5300

BFD Airport (Bradford Rgnl) Radio Frequencies

BFD (Airport) Radio Frequencies

UNICOM 123.075
Common traffic advisory frequency (CTAF) 123.075